Forside
METAR-TAF:

METAR-TAF

Lufthavne :

Flyvestation

Meppen, Tyskland

Breddekreds: 52-43-24N, længdekreds: 007-19-35E, højde: 21 m

Aktuelle vejr

Denne rapport blev lavet for 51 minutter siden, kl. 14:20 UTC
Vind 11 kt fra vest
Temperatur 14°C
Fugtighed 36%
Tryk 1020 hPa

METAR: ETWM 141420Z AUTO 26011KT //// // ////// 14/M01 Q1020 ///

Tid: 17:11 (15:11 UTC)


TAF: fraværende

Vejrobservationer og prognoser fra mere end 4000 lufthavne (METAR og TAF).

De gule og røde prikker repræsenterer de meteorologiske stationer.

Flyt musen over at se navnet på stationen.

Så klik over at se vejr observationer og prognoser.

At skifte det kort: Klik på de grønne knapper med et sort kors for at zoome ind; på den grønne knap med en bindestreg for at zoome ud; eller på de grønne pile for tilstødende kort.


METAR-TAF: